Time;durP1;ratioP1;P1;durP2;ratioP2;P2;SDS_P1;SDS_P2;PMS_P1;PMS_P2;Temp;Humidity;BMP_temperature;BMP_pressure;BME280_temperature;BME280_humidity;BME280_pressure;Samples;Min_cycle;Max_cycle;Signal;HPM_P1;HPM_P2
2022/01/11 00:01:33;;;;;;;1.23;0.65;;;;;;;19.62;38.58;102180.34;4230413;28;20032;-44
2022/01/11 00:03:38;;;;;;;1.52;0.70;;;;;;;19.61;38.62;102180.56;4231448;28;20032;-43
2022/01/11 00:07:55;;;;;;;2.25;0.85;;;;;;;19.52;38.84;102167.03;4231483;28;20028;-43
2022/01/11 00:09:57;;;;;;;2.47;0.80;;;;;;;19.58;38.47;102184.66;4230460;28;20039;-43
2022/01/11 00:12:03;;;;;;;1.67;0.57;;;;;;;19.58;38.55;102183.81;4230268;28;20100;-47
2022/01/11 00:14:05;;;;;;;2.58;0.60;;;;;;;19.54;38.92;102184.28;4230425;28;20051;-44
2022/01/11 00:16:08;;;;;;;1.48;0.70;;;;;;;19.54;38.62;102186.22;4229948;28;20031;-44
2022/01/11 00:18:10;;;;;;;0.93;0.55;;;;;;;19.54;38.62;102189.00;4231180;28;20037;-43
2022/01/11 00:20:15;;;;;;;0.93;0.70;;;;;;;19.51;38.56;102195.03;4231150;28;20080;-43
2022/01/11 00:22:19;;;;;;;2.67;0.82;;;;;;;19.50;38.73;102194.19;4231207;28;20048;-44
2022/01/11 00:24:30;;;;;;;2.15;0.93;;;;;;;19.50;38.37;102198.88;4230476;28;20040;-42
2022/01/11 00:26:31;;;;;;;0.90;0.70;;;;;;;19.50;38.45;102204.44;4230732;28;20092;-45
2022/01/11 00:28:33;;;;;;;1.23;0.60;;;;;;;19.48;38.29;102189.97;4231044;28;20027;-45
2022/01/11 00:30:37;;;;;;;1.02;0.50;;;;;;;19.49;38.37;102191.66;4229926;28;20040;-44
2022/01/11 00:32:47;;;;;;;0.93;0.70;;;;;;;19.47;38.27;102196.59;4231317;28;20036;-46
2022/01/11 00:34:54;;;;;;;0.88;0.63;;;;;;;19.46;38.62;102192.97;4229472;28;20453;-44
2022/01/11 00:36:56;;;;;;;1.52;0.80;;;;;;;19.44;38.51;102189.59;4230938;28;20077;-43
2022/01/11 00:38:57;;;;;;;2.15;1.25;;;;;;;19.42;38.69;102186.19;4229318;28;20047;-45
2022/01/11 00:41:02;;;;;;;1.00;0.82;;;;;;;19.42;38.43;102191.75;4231119;28;20571;-44
2022/01/11 00:43:05;;;;;;;1.20;0.70;;;;;;;19.35;38.21;102179.94;4229722;28;20039;-42
2022/01/11 00:45:12;;;;;;;1.88;1.08;;;;;;;19.40;38.50;102182.00;4230180;28;20044;-44
2022/01/11 00:47:17;;;;;;;1.80;1.08;;;;;;;19.24;38.52;102156.66;4230086;28;20035;-48
2022/01/11 00:49:18;;;;;;;1.40;0.70;;;;;;;19.37;38.52;102179.69;4229824;28;20092;-43
2022/01/11 00:51:20;;;;;;;1.45;0.85;;;;;;;19.39;38.38;102185.84;4229970;28;20035;-43
2022/01/11 00:53:23;;;;;;;1.08;0.75;;;;;;;19.37;38.13;102185.25;4229605;28;20578;-45
2022/01/11 00:55:24;;;;;;;1.27;0.88;;;;;;;19.33;38.43;102176.53;4230834;28;20027;-43
2022/01/11 00:57:28;;;;;;;0.98;0.73;;;;;;;19.35;38.43;102184.66;4230047;28;20089;-43
2022/01/11 00:59:30;;;;;;;3.60;0.80;;;;;;;19.34;38.50;102181.03;4229751;28;20048;-43
2022/01/11 01:01:37;;;;;;;1.92;0.80;;;;;;;19.31;38.14;102175.94;4229815;28;20039;-42
2022/01/11 01:03:39;;;;;;;1.02;0.73;;;;;;;19.28;38.45;102180.03;4229766;28;20108;-41
2022/01/11 01:05:40;;;;;;;3.13;0.63;;;;;;;19.28;38.23;102191.13;4230994;28;20053;-43
2022/01/11 01:07:42;;;;;;;1.95;1.08;;;;;;;19.27;38.35;102178.34;4229942;28;20035;-42
2022/01/11 01:10:09;;;;;;;1.65;0.82;;;;;;;19.26;38.40;102176.66;4229923;28;20096;-42
2022/01/11 01:12:05;;;;;;;2.03;1.00;;;;;;;19.25;38.43;102172.22;4230276;28;20462;-43
2022/01/11 01:14:07;;;;;;;1.60;0.80;;;;;;;19.25;37.90;102183.31;4230448;28;20088;-43
2022/01/11 01:16:08;;;;;;;2.15;0.73;;;;;;;19.22;38.29;102185.72;4229464;28;20393;-41
2022/01/11 01:18:14;;;;;;;2.03;0.70;;;;;;;19.24;38.38;102176.06;4229185;28;20035;-41
2022/01/11 01:20:16;;;;;;;2.70;1.20;;;;;;;19.23;38.26;102181.84;4229580;28;20445;-42
2022/01/11 01:22:17;;;;;;;0.82;0.75;;;;;;;19.19;38.29;102181.47;4229617;28;20093;-45
2022/01/11 01:24:19;;;;;;;1.25;0.73;;;;;;;19.12;38.31;102172.44;4229544;28;20043;-44
2022/01/11 01:26:21;;;;;;;1.63;0.80;;;;;;;19.19;37.91;102181.47;4230375;28;20563;-43
2022/01/11 01:28:25;;;;;;;1.70;0.85;;;;;;;19.18;38.00;102179.78;4229508;28;20040;-45
2022/01/11 01:30:29;;;;;;;1.90;0.87;;;;;;;19.18;38.00;102181.72;4229679;28;20039;-42
2022/01/11 01:32:30;;;;;;;1.50;1.10;;;;;;;19.16;37.91;102181.13;4229445;28;20092;-43
2022/01/11 01:34:32;;;;;;;0.90;0.68;;;;;;;19.15;38.04;102185.84;4229441;28;20044;-46
2022/01/11 01:36:34;;;;;;;1.35;0.80;;;;;;;19.14;37.92;102195.22;4229577;28;20093;-45
2022/01/11 01:38:35;;;;;;;1.95;0.98;;;;;;;19.13;38.24;102192.69;4230478;28;20020;-45
2022/01/11 01:40:43;;;;;;;1.17;0.70;;;;;;;19.12;37.81;102185.47;4229881;28;20035;-42
2022/01/11 01:42:47;;;;;;;1.77;0.80;;;;;;;19.11;38.20;102192.09;4229899;28;20045;-44
2022/01/11 01:44:49;;;;;;;2.93;0.90;;;;;;;19.10;37.74;102190.38;4229678;28;20437;-44
2022/01/11 01:46:50;;;;;;;1.10;0.90;;;;;;;19.09;37.95;102180.38;4229333;28;20040;-45
2022/01/11 01:48:54;;;;;;;1.33;1.00;;;;;;;19.05;37.95;102185.56;4229581;28;20607;-42
2022/01/11 01:50:57;;;;;;;1.30;0.90;;;;;;;19.09;38.04;102184.00;4232666;28;20043;-45
2022/01/11 01:53:02;;;;;;;1.27;0.90;;;;;;;19.06;38.03;102181.72;4232317;28;20044;-43
2022/01/11 01:55:05;;;;;;;1.13;0.93;;;;;;;19.01;37.77;102178.78;4232911;28;20100;-44
2022/01/11 01:57:08;;;;;;;3.15;1.02;;;;;;;19.03;37.96;102182.19;4232921;28;20039;-43
2022/01/11 01:59:10;;;;;;;1.42;0.90;;;;;;;19.04;37.73;102187.50;4232376;28;20444;-46
2022/01/11 02:01:13;;;;;;;3.97;0.80;;;;;;;18.87;37.69;102163.44;4232706;28;20035;-43
2022/01/11 02:03:17;;;;;;;1.25;0.98;;;;;;;19.02;37.50;102194.38;4232535;28;20094;-43
2022/01/11 02:05:18;;;;;;;1.58;0.82;;;;;;;19.01;37.59;102190.75;4232617;28;20404;-43
2022/01/11 02:07:20;;;;;;;1.40;0.90;;;;;;;18.98;37.68;102193.16;4232303;28;20411;-43
2022/01/11 02:09:21;;;;;;;2.05;0.90;;;;;;;18.99;37.85;102204.00;4233068;28;20428;-43
2022/01/11 02:11:24;;;;;;;1.75;0.90;;;;;;;18.95;37.42;102196.41;4232440;28;20035;-42
2022/01/11 02:13:31;;;;;;;1.08;0.98;;;;;;;18.96;37.74;102214.72;4232497;28;20076;-42
2022/01/11 02:15:33;;;;;;;2.88;1.23;;;;;;;18.94;37.54;102214.13;4232257;28;20036;-44
2022/01/11 02:17:35;;;;;;;1.27;0.60;;;;;;;18.90;37.97;102210.97;4232213;28;20088;-43
2022/01/11 02:19:37;;;;;;;1.88;0.90;;;;;;;18.93;37.55;102216.06;4232850;28;20097;-43
2022/01/11 02:21:39;;;;;;;3.28;1.00;;;;;;;18.92;37.65;102214.38;4232241;28;20040;-43
2022/01/11 02:23:40;;;;;;;1.48;0.80;;;;;;;18.91;37.53;102220.13;4232297;28;20047;-41
2022/01/11 02:25:43;;;;;;;1.42;1.00;;;;;;;18.87;37.66;102221.69;4232188;28;20097;-43
2022/01/11 02:27:45;;;;;;;1.80;0.80;;;;;;;18.88;37.48;102229.78;4232416;28;20073;-44
2022/01/11 02:29:47;;;;;;;1.85;1.15;;;;;;;18.85;37.55;102234.97;4232355;28;20512;-43
2022/01/11 02:31:48;;;;;;;1.90;1.10;;;;;;;18.88;37.66;102256.69;4232763;28;20549;-41
2022/01/11 02:33:54;;;;;;;1.88;0.80;;;;;;;18.87;37.73;102255.81;4231834;28;20383;-46
2022/01/11 02:35:55;;;;;;;1.88;0.95;;;;;;;18.88;37.56;102251.13;4221788;28;20048;-45
2022/01/11 02:37:57;;;;;;;1.20;0.90;;;;;;;18.87;37.18;102266.91;4220843;28;20048;-42
2022/01/11 02:39:58;;;;;;;1.27;0.60;;;;;;;18.86;37.44;102258.84;4214499;28;20040;-44
2022/01/11 02:42:01;;;;;;;1.15;1.00;;;;;;;18.84;37.42;102261.00;4216112;28;20463;-43
2022/01/11 02:44:06;;;;;;;1.05;0.90;;;;;;;18.83;37.46;102275.94;4231901;28;20044;-43
2022/01/11 02:46:07;;;;;;;0.88;0.70;;;;;;;18.82;37.15;102279.78;4232355;28;20124;-44
2022/01/11 02:48:10;;;;;;;0.95;0.73;;;;;;;18.81;37.61;102273.41;4230186;28;20471;-44
2022/01/11 02:50:13;;;;;;;1.30;1.00;;;;;;;18.79;37.25;102270.88;4226987;28;20176;-43
2022/01/11 02:52:15;;;;;;;2.25;0.90;;;;;;;18.79;37.41;102275.59;4229368;28;20055;-43
2022/01/11 02:54:16;;;;;;;1.55;0.88;;;;;;;18.77;37.24;102266.63;4227631;28;20043;-45
2022/01/11 02:56:19;;;;;;;1.42;0.90;;;;;;;18.76;37.16;102264.94;4231508;28;20531;-46
2022/01/11 02:58:24;;;;;;;0.90;0.80;;;;;;;18.75;37.49;102264.09;4231650;28;20387;-44
2022/01/11 03:00:25;;;;;;;1.38;0.98;;;;;;;18.69;37.00;102253.97;4220727;28;20532;-44
2022/01/11 03:02:26;;;;;;;1.50;0.80;;;;;;;18.71;37.38;102262.88;4214959;28;20036;-45
2022/01/11 03:04:33;;;;;;;1.35;0.90;;;;;;;18.72;37.11;102272.03;4215092;28;20455;-45
2022/01/11 03:06:43;;;;;;;2.33;0.90;;;;;;;18.70;37.27;102255.66;4215965;28;20028;-42
2022/01/11 03:08:46;;;;;;;1.30;0.70;;;;;;;18.71;37.44;102271.19;4214545;28;20096;-43
2022/01/11 03:10:50;;;;;;;1.35;0.82;;;;;;;18.69;37.40;102265.06;4223051;28;20035;-44
2022/01/11 03:12:51;;;;;;;1.05;0.90;;;;;;;18.68;37.35;102271.63;4232042;28;20027;-42
2022/01/11 03:14:53;;;;;;;2.08;0.98;;;;;;;18.68;37.60;102274.38;4232304;28;20494;-45
2022/01/11 03:16:54;;;;;;;1.52;0.70;;;;;;;18.63;37.42;102265.09;4215199;28;20132;-48
2022/01/11 03:18:58;;;;;;;1.63;0.73;;;;;;;18.65;37.24;102285.97;4213469;28;20048;-46
2022/01/11 03:21:00;;;;;;;1.27;0.90;;;;;;;18.59;37.41;102275.78;4230438;28;20047;-44
2022/01/11 03:23:02;;;;;;;1.25;0.80;;;;;;;18.64;37.63;102295.34;4231668;28;20152;-43
2022/01/11 03:25:06;;;;;;;2.05;0.88;;;;;;;18.64;37.37;102294.50;4231515;28;20043;-43
2022/01/11 03:27:07;;;;;;;1.23;0.90;;;;;;;18.62;37.32;102280.88;4231603;28;20462;-42
2022/01/11 03:29:08;;;;;;;2.33;1.70;;;;;;;18.58;37.18;102285.19;4231500;28;20047;-44
2022/01/11 03:31:10;;;;;;;1.63;0.77;;;;;;;18.62;37.18;102288.34;4232269;28;20031;-42
2022/01/11 03:33:11;;;;;;;2.08;1.00;;;;;;;18.60;37.32;102296.03;4229189;28;20124;-42
2022/01/11 03:35:13;;;;;;;2.38;1.05;;;;;;;18.56;37.72;102280.97;4214849;28;20044;-41
2022/01/11 03:37:17;;;;;;;1.52;0.90;;;;;;;18.57;37.66;102293.75;4215127;28;20039;-45
2022/01/11 03:39:21;;;;;;;1.35;0.85;;;;;;;18.55;37.56;102291.19;4214516;28;20044;-42
2022/01/11 03:41:23;;;;;;;2.10;0.87;;;;;;;18.54;37.36;102301.44;4214909;28;20035;-43
2022/01/11 03:43:26;;;;;;;1.40;0.95;;;;;;;18.54;37.68;102295.06;4214416;28;20342;-46
2022/01/11 03:45:27;;;;;;;1.77;1.20;;;;;;;18.53;37.12;102296.13;4214596;28;20477;-47
2022/01/11 03:47:32;;;;;;;2.90;0.90;;;;;;;18.51;37.37;102292.75;4214512;28;20040;-43
2022/01/11 03:49:33;;;;;;;1.90;1.17;;;;;;;18.50;37.67;102294.66;4228302;28;20084;-45
2022/01/11 03:51:38;;;;;;;1.83;1.02;;;;;;;18.50;37.55;102293.81;4230925;28;20264;-43
2022/01/11 03:53:51;;;;;;;2.22;1.10;;;;;;;18.49;37.47;102297.69;4231406;28;20048;-42
2022/01/11 03:56:11;;;;;;;2.08;1.08;;;;;;;18.46;37.42;102298.13;4227080;28;20085;-43
2022/01/11 03:58:17;;;;;;;1.52;0.90;;;;;;;18.47;37.50;102291.53;4212873;28;20441;-42
2022/01/11 04:00:22;;;;;;;2.90;1.10;;;;;;;18.48;37.99;102307.06;4228736;28;20085;-43
2022/01/11 04:02:24;;;;;;;3.45;1.00;;;;;;;18.44;37.64;102306.69;4226217;28;20036;-43
2022/01/11 04:04:26;;;;;;;2.88;0.90;;;;;;;18.41;37.92;102306.28;4222108;28;20047;-45
2022/01/11 04:06:27;;;;;;;5.38;1.23;;;;;;;18.46;38.24;102314.75;4231467;28;20031;-42
2022/01/11 04:08:29;;;;;;;1.50;0.80;;;;;;;18.44;37.97;102305.84;4228324;28;20044;-44
2022/01/11 04:10:30;;;;;;;4.32;0.93;;;;;;;18.48;38.36;102318.16;4229213;28;20039;-41
2022/01/11 04:12:32;;;;;;;2.80;1.00;;;;;;;18.52;39.04;102313.84;4229957;28;20140;-42
2022/01/11 04:14:33;;;;;;;3.80;1.20;;;;;;;18.53;38.72;102327.47;4230643;28;20108;-41
2022/01/11 04:16:34;;;;;;;2.35;0.82;;;;;;;18.49;38.53;102303.22;4231410;28;20463;-43
2022/01/11 04:18:36;;;;;;;2.65;1.27;;;;;;;18.55;38.24;102318.91;4231288;28;20051;-42
2022/01/11 04:20:37;;;;;;;3.42;0.90;;;;;;;18.62;38.04;102319.69;4226817;28;20043;-43
2022/01/11 04:22:39;;;;;;;4.45;1.30;;;;;;;18.64;38.02;102328.63;4214542;28;20043;-41
2022/01/11 04:24:40;;;;;;;1.60;0.70;;;;;;;18.67;37.91;102325.38;4213675;28;20036;-41
2022/01/11 04:26:42;;;;;;;1.20;0.90;;;;;;;18.70;37.74;102330.50;4215299;28;20097;-41
2022/01/11 04:28:46;;;;;;;2.63;1.13;;;;;;;18.75;37.40;102322.34;4215070;28;20040;-43
2022/01/11 04:30:47;;;;;;;2.03;1.10;;;;;;;18.81;37.62;102322.47;4213750;28;20090;-42
2022/01/11 04:32:49;;;;;;;3.58;1.23;;;;;;;18.85;37.42;102332.88;4220719;28;20104;-42
2022/01/11 04:34:50;;;;;;;4.68;1.58;;;;;;;18.88;38.78;102324.09;4230340;28;20035;-42
2022/01/11 04:36:52;;;;;;;2.25;0.85;;;;;;;18.94;40.40;102327.84;4219041;28;20157;-43
2022/01/11 04:38:53;;;;;;;3.80;1.02;;;;;;;18.98;41.80;102341.03;4216430;28;20040;-42
2022/01/11 04:40:54;;;;;;;1.00;0.90;;;;;;;19.00;41.86;102338.84;4218735;28;20039;-41
2022/01/11 04:42:56;;;;;;;1.45;0.90;;;;;;;19.04;41.94;102347.56;4228912;28;20171;-42
2022/01/11 04:45:00;;;;;;;4.60;1.33;;;;;;;19.05;41.44;102338.16;4230428;28;20084;-42
2022/01/11 04:47:02;;;;;;;5.70;1.05;;;;;;;19.08;41.15;102340.47;4212576;28;20510;-42
2022/01/11 04:49:03;;;;;;;4.13;1.13;;;;;;;19.14;40.92;102352.53;4230697;28;20031;-43
2022/01/11 04:51:06;;;;;;;4.75;1.10;;;;;;;19.15;40.90;102362.56;4231221;28;20023;-42
2022/01/11 04:53:07;;;;;;;2.88;0.90;;;;;;;19.17;40.50;102358.47;4230870;28;20031;-42
2022/01/11 04:55:10;;;;;;;1.98;0.80;;;;;;;19.17;40.46;102355.69;4230118;28;20081;-42
2022/01/11 04:57:12;;;;;;;2.55;0.95;;;;;;;19.17;40.39;102358.47;4230670;28;20093;-43
2022/01/11 04:59:13;;;;;;;3.80;0.88;;;;;;;19.18;40.15;102368.50;4230439;28;20032;-44
2022/01/11 05:01:18;;;;;;;4.15;0.90;;;;;;;19.17;40.02;102377.91;4230157;28;20088;-42
2022/01/11 05:03:19;;;;;;;2.05;1.17;;;;;;;19.18;40.15;102379.59;4229959;28;20048;-43
2022/01/11 05:05:22;;;;;;;9.55;0.85;;;;;;;19.21;39.91;102376.34;4230551;28;20478;-42
2022/01/11 05:07:24;;;;;;;1.75;1.10;;;;;;;19.21;39.71;102368.03;4229336;28;20040;-42
2022/01/11 05:09:25;;;;;;;5.80;1.05;;;;;;;19.21;39.72;102395.78;4227909;28;20072;-42
2022/01/11 05:11:29;;;;;;;2.00;0.90;;;;;;;19.21;39.56;102370.81;4227709;28;20039;-42
2022/01/11 05:13:34;;;;;;;2.40;0.80;;;;;;;19.20;39.50;102382.16;4229731;28;20535;-44
2022/01/11 05:15:36;;;;;;;2.20;1.25;;;;;;;19.19;39.22;102386.81;4228740;28;20112;-42
2022/01/11 05:17:39;;;;;;;1.30;0.70;;;;;;;19.17;39.14;102383.44;4229330;28;20512;-41
2022/01/11 05:19:40;;;;;;;2.25;0.90;;;;;;;19.19;39.27;102389.59;4213427;28;20032;-43
2022/01/11 05:21:42;;;;;;;2.63;0.70;;;;;;;19.18;38.76;102379.59;4213032;28;20169;-42
2022/01/11 05:23:44;;;;;;;2.63;0.80;;;;;;;19.19;39.10;102381.28;4213821;28;20040;-42
2022/01/11 05:25:45;;;;;;;1.70;0.90;;;;;;;19.14;39.07;102386.69;4216479;28;20135;-42
2022/01/11 05:27:49;;;;;;;2.35;0.88;;;;;;;19.11;39.04;102378.84;4218024;27;20040;-42
2022/01/11 05:29:51;;;;;;;1.23;0.90;;;;;;;19.16;38.62;102403.97;4217804;28;20039;-43
2022/01/11 05:31:53;;;;;;;1.85;0.93;;;;;;;19.10;38.94;102393.78;4234009;28;20516;-42
2022/01/11 05:33:54;;;;;;;3.60;0.80;;;;;;;19.15;38.74;102410.59;4234012;28;20100;-45
2022/01/11 05:35:56;;;;;;;3.25;0.80;;;;;;;19.14;38.73;102406.09;4233501;28;20445;-42
2022/01/11 05:37:58;;;;;;;3.45;1.23;;;;;;;19.10;38.65;102406.81;4234099;28;20048;-42
2022/01/11 05:39:59;;;;;;;1.40;0.80;;;;;;;19.11;38.73;102427.94;4233717;28;20032;-42
2022/01/11 05:42:07;;;;;;;2.20;0.60;;;;;;;19.05;38.65;102413.91;4233946;28;20084;-41
2022/01/11 05:44:09;;;;;;;2.00;1.15;;;;;;;19.09;38.48;102414.28;4234077;28;20044;-42
2022/01/11 05:46:10;;;;;;;1.67;0.88;;;;;;;19.06;38.55;102414.78;4233747;28;20047;-42
2022/01/11 05:48:11;;;;;;;1.90;0.95;;;;;;;19.05;38.48;102415.84;4233194;28;20432;-43
2022/01/11 05:50:14;;;;;;;2.53;1.20;;;;;;;18.98;38.69;102406.75;4234139;28;20028;-43
2022/01/11 05:52:15;;;;;;;3.75;1.05;;;;;;;19.04;38.75;102411.38;4233922;28;20039;-43
2022/01/11 05:54:17;;;;;;;1.40;0.82;;;;;;;18.99;38.91;102419.53;4234029;28;20344;-42
2022/01/11 05:56:18;;;;;;;1.08;0.70;;;;;;;19.02;38.79;102419.09;4233838;28;20471;-43
2022/01/11 05:58:22;;;;;;;2.70;0.90;;;;;;;18.98;38.56;102421.47;4233670;28;20028;-43
2022/01/11 06:00:24;;;;;;;1.00;0.70;;;;;;;19.00;38.53;102437.88;4233779;28;20027;-42
2022/01/11 06:02:25;;;;;;;1.02;0.93;;;;;;;18.96;38.47;102420.00;4233611;28;20036;-42
2022/01/11 06:04:27;;;;;;;1.00;0.75;;;;;;;18.94;38.58;102416.63;4233696;28;20043;-48
2022/01/11 06:06:28;;;;;;;1.50;0.82;;;;;;;18.95;38.53;102429.41;4233799;28;20096;-46
2022/01/11 06:08:29;;;;;;;2.17;0.93;;;;;;;18.95;38.40;102434.94;4233242;28;20093;-42
2022/01/11 06:10:31;;;;;;;1.38;0.88;;;;;;;18.93;38.47;102429.66;4232881;28;20472;-44
2022/01/11 06:12:32;;;;;;;1.20;0.77;;;;;;;18.92;38.39;102429.84;4233372;28;20096;-43
2022/01/11 06:14:36;;;;;;;1.45;0.70;;;;;;;18.88;38.51;102429.50;4232580;28;20096;-43
2022/01/11 06:16:38;;;;;;;2.20;0.75;;;;;;;18.89;38.71;102450.59;4233040;28;20031;-43
2022/01/11 06:18:39;;;;;;;1.73;0.90;;;;;;;18.89;38.85;102458.94;4233103;28;20048;-42
2022/01/11 06:20:41;;;;;;;0.70;0.65;;;;;;;18.87;38.87;102455.53;4233106;28;20089;-42
2022/01/11 06:22:45;;;;;;;1.75;0.90;;;;;;;18.86;38.93;102464.91;4233267;28;20028;-42
2022/01/11 06:24:47;;;;;;;1.98;0.77;;;;;;;18.83;38.96;102459.84;4232604;28;20040;-42
2022/01/11 06:26:49;;;;;;;2.05;0.98;;;;;;;18.84;38.57;102469.88;4232541;28;20047;-43
2022/01/11 06:28:50;;;;;;;1.45;0.80;;;;;;;18.84;38.40;102480.13;4232191;28;20032;-42
2022/01/11 06:30:52;;;;;;;1.67;0.68;;;;;;;18.83;38.53;102481.16;4233107;28;20109;-45
2022/01/11 06:32:56;;;;;;;0.75;0.60;;;;;;;18.81;38.52;102480.56;4232110;28;20040;-42
2022/01/11 06:34:59;;;;;;;1.77;0.80;;;;;;;18.81;38.65;102494.44;4231987;28;20151;-42
2022/01/11 06:37:00;;;;;;;2.15;0.95;;;;;;;18.74;38.66;102484.25;4232413;28;20035;-42
2022/01/11 06:39:03;;;;;;;0.68;0.50;;;;;;;18.77;38.79;102500.44;4232739;28;20498;-42
2022/01/11 06:41:05;;;;;;;4.35;1.00;;;;;;;18.75;38.93;102494.28;4232381;28;20096;-42
2022/01/11 06:43:07;;;;;;;1.48;0.70;;;;;;;18.77;38.96;102494.03;4231802;28;20036;-44
2022/01/11 06:45:11;;;;;;;1.02;0.73;;;;;;;18.74;38.68;102506.44;4232544;28;20492;-42
2022/01/11 06:47:13;;;;;;;1.73;0.80;;;;;;;18.74;38.60;102512.00;4229557;28;20047;-42
2022/01/11 06:49:14;;;;;;;3.08;0.60;;;;;;;18.74;38.97;102506.44;4231632;28;20040;-43
2022/01/11 06:51:16;;;;;;;1.00;0.75;;;;;;;18.72;38.92;102514.13;4232444;28;20036;-42
2022/01/11 06:53:18;;;;;;;1.30;0.70;;;;;;;18.71;38.57;102506.91;4232876;28;20028;-43
2022/01/11 06:55:20;;;;;;;1.50;1.00;;;;;;;18.70;38.69;102527.38;4232490;28;20043;-42
2022/01/11 06:57:24;;;;;;;0.80;0.65;;;;;;;18.69;39.04;102536.78;4231746;28;20466;-42
2022/01/11 06:59:25;;;;;;;0.95;0.70;;;;;;;18.69;38.82;102550.66;4230690;28;20043;-43
2022/01/11 07:01:29;;;;;;;1.15;0.70;;;;;;;18.68;38.83;102557.22;4231373;28;20036;-47
2022/01/11 07:03:31;;;;;;;1.10;0.70;;;;;;;18.66;38.74;102572.41;4232831;28;20080;-47
2022/01/11 07:05:32;;;;;;;2.20;0.88;;;;;;;18.67;38.81;102586.03;4231361;28;20116;-46
2022/01/11 07:07:34;;;;;;;0.50;0.50;;;;;;;18.67;38.67;102587.97;4215250;28;20036;-46
2022/01/11 07:09:36;;;;;;;2.97;0.80;;;;;;;18.63;38.68;102598.66;4228959;28;20036;-44
2022/01/11 07:11:37;;;;;;;1.40;0.70;;;;;;;18.65;38.71;102607.59;4231131;28;20108;-42
2022/01/11 07:13:39;;;;;;;0.93;0.70;;;;;;;18.63;38.79;102625.53;4216796;28;20598;-42
2022/01/11 07:15:40;;;;;;;2.17;0.90;;;;;;;18.61;38.50;102639.63;4215334;28;20036;-42
2022/01/11 07:17:42;;;;;;;1.83;0.80;;;;;;;18.61;38.63;102639.63;4227306;28;20043;-43
2022/01/11 07:19:44;;;;;;;1.30;0.60;;;;;;;18.62;38.44;102635.78;4224840;28;20412;-42
2022/01/11 07:21:47;;;;;;;1.35;0.63;;;;;;;18.59;38.68;102641.75;4231672;28;20043;-41
2022/01/11 07:23:48;;;;;;;0.63;0.50;;;;;;;18.58;38.38;102640.06;4226804;28;20089;-43
2022/01/11 07:25:50;;;;;;;1.98;0.80;;;;;;;18.54;38.66;102656.28;4215042;28;20036;-42
2022/01/11 07:27:51;;;;;;;1.52;0.80;;;;;;;18.54;38.74;102649.91;4216342;28;20477;-42
2022/01/11 07:29:56;;;;;;;1.90;0.80;;;;;;;18.54;38.31;102655.44;4230136;28;20101;-46
2022/01/11 07:32:04;;;;;;;1.10;0.75;;;;;;;18.52;38.50;102652.06;4223769;28;20536;-44
2022/01/11 07:34:06;;;;;;;1.52;0.80;;;;;;;18.52;38.21;102660.38;4224143;28;20043;-42
2022/01/11 07:36:07;;;;;;;0.80;0.60;;;;;;;18.51;38.60;102672.53;4224292;28;20097;-42
2022/01/11 07:38:09;;;;;;;1.70;0.85;;;;;;;18.51;38.28;102678.09;4214545;28;20097;-43
2022/01/11 07:40:12;;;;;;;1.15;0.80;;;;;;;18.47;38.23;102690.69;4232006;27;20047;-45
2022/01/11 07:42:13;;;;;;;2.13;0.75;;;;;;;18.47;38.60;102677.69;4230363;28;20092;-43
2022/01/11 07:44:14;;;;;;;1.30;0.95;;;;;;;18.45;38.49;102681.72;4230175;28;20043;-42
2022/01/11 07:46:16;;;;;;;1.20;0.80;;;;;;;18.47;38.43;102688.78;4231629;28;20543;-43
2022/01/11 07:48:18;;;;;;;0.90;0.68;;;;;;;18.39;37.95;102679.84;4223124;28;20392;-42
2022/01/11 07:50:19;;;;;;;1.50;0.70;;;;;;;18.44;38.37;102696.66;4220859;28;20031;-42
2022/01/11 07:52:21;;;;;;;2.08;0.75;;;;;;;18.36;38.21;102685.84;4223904;28;20044;-41
2022/01/11 07:54:22;;;;;;;1.65;0.80;;;;;;;18.41;38.12;102695.19;4220469;28;20051;-40
2022/01/11 07:56:24;;;;;;;0.85;0.60;;;;;;;18.41;38.28;102710.97;4231458;28;20048;-41
2022/01/11 07:58:25;;;;;;;1.58;0.70;;;;;;;18.40;38.29;102698.19;4227766;28;20108;-42
2022/01/11 08:00:27;;;;;;;1.42;0.90;;;;;;;18.40;38.19;102717.59;4215791;28;20097;-42
2022/01/11 08:02:28;;;;;;;1.70;0.82;;;;;;;18.39;37.91;102724.22;4219358;28;20040;-44
2022/01/11 08:04:31;;;;;;;0.93;0.80;;;;;;;18.38;38.02;102719.75;4230110;28;20100;-45
2022/01/11 08:06:35;;;;;;;1.05;0.80;;;;;;;18.37;38.31;102718.00;4226390;28;20039;-41
2022/01/11 08:08:37;;;;;;;1.23;0.75;;;;;;;18.34;38.16;102715.72;4214217;28;20429;-43
2022/01/11 08:10:38;;;;;;;0.70;0.70;;;;;;;18.34;37.96;102721.25;4228169;28;20104;-42
2022/01/11 08:12:39;;;;;;;1.02;0.73;;;;;;;18.31;38.20;102724.44;4216352;28;20422;-43
2022/01/11 08:14:41;;;;;;;4.15;1.00;;;;;;;18.32;37.83;102726.16;4227050;28;20297;-43
2022/01/11 08:16:42;;;;;;;1.67;0.77;;;;;;;18.26;37.93;102731.50;4222434;28;20085;-44
2022/01/11 08:18:44;;;;;;;1.65;0.80;;;;;;;18.26;37.86;102737.03;4225774;28;20035;-44
2022/01/11 08:20:48;;;;;;;1.00;0.88;;;;;;;18.29;37.83;102758.78;4214446;28;20043;-43
2022/01/11 08:22:51;;;;;;;1.73;0.77;;;;;;;18.27;37.45;102749.81;4213876;28;20040;-42
2022/01/11 08:24:52;;;;;;;1.20;0.73;;;;;;;18.26;38.07;102750.91;4219144;28;20096;-43
2022/01/11 08:26:54;;;;;;;1.17;0.98;;;;;;;18.25;37.78;102751.97;4226148;28;20483;-45
2022/01/11 08:28:56;;;;;;;1.42;0.75;;;;;;;18.24;37.73;102753.06;4214865;28;20048;-43
2022/01/11 08:30:57;;;;;;;1.00;0.70;;;;;;;18.24;37.61;102761.38;4225730;28;20090;-42
2022/01/11 08:33:04;;;;;;;1.00;0.80;;;;;;;18.21;37.58;102761.78;4214447;28;20101;-42
2022/01/11 08:35:06;;;;;;;1.35;0.70;;;;;;;18.18;37.58;102767.75;4218891;28;20104;-44
2022/01/11 08:37:08;;;;;;;0.63;0.50;;;;;;;18.21;37.74;102770.09;4229858;28;20462;-44
2022/01/11 08:39:11;;;;;;;0.90;0.60;;;;;;;18.20;37.86;102776.72;4230079;28;20465;-41
2022/01/11 08:41:19;;;;;;;1.67;0.90;;;;;;;18.19;37.58;102786.13;4230373;28;20043;-43
2022/01/11 08:43:20;;;;;;;1.85;0.80;;;;;;;18.20;37.79;102778.66;4230069;28;20055;-43
2022/01/11 08:45:22;;;;;;;0.90;0.60;;;;;;;18.17;37.53;102788.22;4230283;28;20108;-43
2022/01/11 08:47:25;;;;;;;1.30;0.70;;;;;;;18.16;37.44;102775.47;4223968;28;20036;-41
2022/01/11 08:49:29;;;;;;;1.23;0.60;;;;;;;18.13;37.71;102792.50;4210531;28;20039;-44
2022/01/11 08:51:31;;;;;;;0.80;0.73;;;;;;;18.15;37.72;102784.84;4213782;28;20048;-45
2022/01/11 08:53:35;;;;;;;0.93;0.73;;;;;;;18.14;37.37;102788.66;4214280;28;20093;-44
2022/01/11 08:55:39;;;;;;;0.90;0.73;;;;;;;18.15;37.22;102801.47;4215301;28;20032;-42
2022/01/11 08:57:40;;;;;;;0.85;0.77;;;;;;;18.15;37.43;102795.94;4228113;28;20089;-44
2022/01/11 08:59:42;;;;;;;1.17;0.80;;;;;;;18.15;37.23;102801.47;4224604;28;20035;-42
2022/01/11 09:01:46;;;;;;;1.52;0.80;;;;;;;18.18;37.33;102808.47;4220688;28;20413;-43
2022/01/11 09:03:47;;;;;;;1.70;0.98;;;;;;;18.22;37.23;102806.97;4213606;28;20093;-42
2022/01/11 09:05:51;;;;;;;1.27;0.70;;;;;;;18.22;36.93;102806.97;4224175;28;20036;-44
2022/01/11 09:07:52;;;;;;;1.25;0.82;;;;;;;18.21;36.78;102819.13;4230196;28;20482;-42
2022/01/11 09:09:53;;;;;;;1.75;0.80;;;;;;;18.22;36.93;102813.38;4229573;28;20040;-45
2022/01/11 09:11:57;;;;;;;1.08;0.82;;;;;;;18.18;37.05;102823.19;4215451;28;20040;-44
2022/01/11 09:14:04;;;;;;;1.17;1.05;;;;;;;18.21;36.73;102830.22;4221993;28;20048;-42
2022/01/11 09:16:06;;;;;;;1.63;0.75;;;;;;;18.22;37.32;102849.38;4216961;28;20160;-42
2022/01/11 09:18:08;;;;;;;0.90;0.70;;;;;;;18.20;36.73;102837.69;4214197;28;20415;-47
2022/01/11 09:20:12;;;;;;;0.63;0.60;;;;;;;18.20;36.92;102853.47;4229638;28;20048;-42
2022/01/11 09:22:16;;;;;;;1.05;0.70;;;;;;;18.21;36.95;102844.94;4229621;28;20545;-42
2022/01/11 09:24:19;;;;;;;1.00;0.70;;;;;;;18.18;36.85;102850.03;4215481;28;20044;-43
2022/01/11 09:26:21;;;;;;;1.27;0.90;;;;;;;18.15;36.87;102854.13;4217534;28;20035;-47
2022/01/11 09:28:23;;;;;;;0.90;0.60;;;;;;;18.15;37.21;102867.97;4226071;28;20044;-43
2022/01/11 09:30:25;;;;;;;1.65;0.80;;;;;;;18.13;36.90;102864.53;4214815;28;20052;-41
2022/01/11 09:32:26;;;;;;;2.47;0.90;;;;;;;18.12;37.06;102867.53;4213898;28;20105;-42